Chimay, Belgium
Current Conditions -  °F | °C
As of 1:25 PM on Sunday 23 Nov 2014 (Local Time) from EBFS Reporting Station
Broken Clouds Broken Clouds  
Wind Chill: 57°   Ceiling: 22000
Heat Index: 57°   Visibility: 6mi
Dew Point: 50°   Wind: 7mph
Humidity: 77%   Direction: 150°SSE
Pressure: 30"   Gusts: NA
Location:  50.05°N, 4.32°E
Report Text: EBFS 231225Z 15006KT 9999 FEW120 BKN220 14/10 Q1016 BLU
Loading
Personal Weather Stations






























Interactive Weather Map New forecast layout! Learn more

10-Day Weather Forecast

Advertisements
Track Severe Weather on mobile